sensor_id;sensor_type;location;lat;lon;timestamp;P1;durP1;ratioP1;P2;durP2;ratioP2
42196;SDS011;27866;48.146;17.098;2023-04-19T00:01:30;9.32;;;6.07;;
42196;SDS011;27866;48.146;17.098;2023-04-19T00:05:41;11.55;;;6.40;;
42196;SDS011;27866;48.146;17.098;2023-04-19T00:09:53;10.65;;;6.60;;
42196;SDS011;27866;48.146;17.098;2023-04-19T00:14:05;12.10;;;6.82;;
42196;SDS011;27866;48.146;17.098;2023-04-19T00:18:16;12.05;;;6.40;;
42196;SDS011;27866;48.146;17.098;2023-04-19T00:22:27;10.70;;;6.90;;
42196;SDS011;27866;48.146;17.098;2023-04-19T00:26:38;12.10;;;7.38;;
42196;SDS011;27866;48.146;17.098;2023-04-19T00:30:50;15.35;;;7.60;;
42196;SDS011;27866;48.146;17.098;2023-04-19T00:35:01;13.02;;;7.57;;
42196;SDS011;27866;48.146;17.098;2023-04-19T00:39:15;13.05;;;7.85;;
42196;SDS011;27866;48.146;17.098;2023-04-19T00:43:26;16.15;;;8.75;;
42196;SDS011;27866;48.146;17.098;2023-04-19T00:47:38;18.60;;;9.65;;
42196;SDS011;27866;48.146;17.098;2023-04-19T00:51:49;14.20;;;8.77;;
42196;SDS011;27866;48.146;17.098;2023-04-19T00:56:01;17.83;;;10.80;;
42196;SDS011;27866;48.146;17.098;2023-04-19T01:00:15;17.55;;;10.20;;
42196;SDS011;27866;48.146;17.098;2023-04-19T01:04:28;17.85;;;11.13;;
42196;SDS011;27866;48.146;17.098;2023-04-19T01:08:39;17.02;;;11.10;;
42196;SDS011;27866;48.146;17.098;2023-04-19T01:12:50;19.75;;;11.55;;
42196;SDS011;27866;48.146;17.098;2023-04-19T01:17:01;18.02;;;11.82;;
42196;SDS011;27866;48.146;17.098;2023-04-19T01:21:13;22.15;;;12.82;;
42196;SDS011;27866;48.146;17.098;2023-04-19T01:25:25;24.63;;;12.68;;
42196;SDS011;27866;48.146;17.098;2023-04-19T01:29:36;20.20;;;13.18;;
42196;SDS011;27866;48.146;17.098;2023-04-19T01:33:47;21.83;;;13.60;;
42196;SDS011;27866;48.146;17.098;2023-04-19T01:37:59;20.33;;;13.07;;
42196;SDS011;27866;48.146;17.098;2023-04-19T01:42:11;23.77;;;14.75;;
42196;SDS011;27866;48.146;17.098;2023-04-19T01:46:22;23.85;;;14.68;;
42196;SDS011;27866;48.146;17.098;2023-04-19T01:50:34;25.05;;;14.50;;
42196;SDS011;27866;48.146;17.098;2023-04-19T01:54:48;23.23;;;15.00;;
42196;SDS011;27866;48.146;17.098;2023-04-19T01:58:59;23.23;;;15.45;;
42196;SDS011;27866;48.146;17.098;2023-04-19T02:03:10;23.98;;;15.73;;
42196;SDS011;27866;48.146;17.098;2023-04-19T02:07:21;27.17;;;16.95;;
42196;SDS011;27866;48.146;17.098;2023-04-19T02:11:33;23.02;;;16.08;;
42196;SDS011;27866;48.146;17.098;2023-04-19T02:15:44;27.08;;;16.40;;
42196;SDS011;27866;48.146;17.098;2023-04-19T02:19:56;29.83;;;15.75;;
42196;SDS011;27866;48.146;17.098;2023-04-19T02:24:07;23.65;;;16.52;;
42196;SDS011;27866;48.146;17.098;2023-04-19T02:28:18;26.08;;;17.15;;
42196;SDS011;27866;48.146;17.098;2023-04-19T02:32:29;27.80;;;17.67;;
42196;SDS011;27866;48.146;17.098;2023-04-19T02:36:41;32.15;;;18.20;;
42196;SDS011;27866;48.146;17.098;2023-04-19T02:40:53;25.83;;;16.48;;
42196;SDS011;27866;48.146;17.098;2023-04-19T02:45:04;30.55;;;18.48;;
42196;SDS011;27866;48.146;17.098;2023-04-19T02:49:16;28.40;;;17.38;;
42196;SDS011;27866;48.146;17.098;2023-04-19T02:53:28;31.15;;;17.35;;
42196;SDS011;27866;48.146;17.098;2023-04-19T02:57:40;29.73;;;18.70;;
42196;SDS011;27866;48.146;17.098;2023-04-19T03:01:54;29.40;;;18.33;;
42196;SDS011;27866;48.146;17.098;2023-04-19T03:06:07;26.27;;;17.40;;
42196;SDS011;27866;48.146;17.098;2023-04-19T03:10:18;28.88;;;18.40;;
42196;SDS011;27866;48.146;17.098;2023-04-19T03:14:30;31.48;;;19.08;;
42196;SDS011;27866;48.146;17.098;2023-04-19T03:18:43;31.58;;;18.58;;
42196;SDS011;27866;48.146;17.098;2023-04-19T03:22:55;30.23;;;19.00;;
42196;SDS011;27866;48.146;17.098;2023-04-19T03:27:08;28.45;;;18.92;;
42196;SDS011;27866;48.146;17.098;2023-04-19T03:31:19;34.63;;;19.08;;
42196;SDS011;27866;48.146;17.098;2023-04-19T03:35:33;33.00;;;19.98;;
42196;SDS011;27866;48.146;17.098;2023-04-19T03:39:52;30.35;;;20.00;;
42196;SDS011;27866;48.146;17.098;2023-04-19T03:44:10;30.33;;;19.92;;
42196;SDS011;27866;48.146;17.098;2023-04-19T03:48:25;33.25;;;20.85;;
42196;SDS011;27866;48.146;17.098;2023-04-19T03:52:37;32.90;;;21.45;;
42196;SDS011;27866;48.146;17.098;2023-04-19T03:56:49;30.45;;;20.65;;
42196;SDS011;27866;48.146;17.098;2023-04-19T04:01:01;35.45;;;20.45;;
42196;SDS011;27866;48.146;17.098;2023-04-19T04:05:13;34.60;;;20.98;;
42196;SDS011;27866;48.146;17.098;2023-04-19T04:09:25;33.35;;;21.20;;
42196;SDS011;27866;48.146;17.098;2023-04-19T04:13:37;32.75;;;21.40;;
42196;SDS011;27866;48.146;17.098;2023-04-19T04:17:56;34.42;;;20.88;;
42196;SDS011;27866;48.146;17.098;2023-04-19T04:22:09;34.88;;;21.50;;
42196;SDS011;27866;48.146;17.098;2023-04-19T04:26:25;38.92;;;22.92;;
42196;SDS011;27866;48.146;17.098;2023-04-19T04:30:58;33.75;;;21.50;;
42196;SDS011;27866;48.146;17.098;2023-04-19T04:39:34;39.85;;;22.58;;
42196;SDS011;27866;48.146;17.098;2023-04-19T04:43:50;35.78;;;21.48;;
42196;SDS011;27866;48.146;17.098;2023-04-19T04:48:05;33.28;;;22.17;;
42196;SDS011;27866;48.146;17.098;2023-04-19T04:52:18;36.05;;;23.00;;
42196;SDS011;27866;48.146;17.098;2023-04-19T04:56:42;34.17;;;22.88;;
42196;SDS011;27866;48.146;17.098;2023-04-19T05:00:53;39.40;;;23.98;;
42196;SDS011;27866;48.146;17.098;2023-04-19T05:05:06;34.22;;;22.58;;
42196;SDS011;27866;48.146;17.098;2023-04-19T05:09:20;34.22;;;22.73;;
42196;SDS011;27866;48.146;17.098;2023-04-19T05:13:32;36.63;;;22.95;;
42196;SDS011;27866;48.146;17.098;2023-04-19T05:17:43;43.83;;;24.70;;
42196;SDS011;27866;48.146;17.098;2023-04-19T05:21:56;41.03;;;23.70;;
42196;SDS011;27866;48.146;17.098;2023-04-19T05:26:07;41.75;;;23.95;;
42196;SDS011;27866;48.146;17.098;2023-04-19T05:30:23;36.70;;;23.52;;
42196;SDS011;27866;48.146;17.098;2023-04-19T05:34:35;40.80;;;23.27;;
42196;SDS011;27866;48.146;17.098;2023-04-19T05:38:47;37.63;;;22.75;;
42196;SDS011;27866;48.146;17.098;2023-04-19T05:42:59;34.33;;;22.50;;
42196;SDS011;27866;48.146;17.098;2023-04-19T05:47:10;31.55;;;22.20;;
42196;SDS011;27866;48.146;17.098;2023-04-19T05:51:40;36.00;;;22.80;;
42196;SDS011;27866;48.146;17.098;2023-04-19T05:56:08;35.88;;;22.88;;
42196;SDS011;27866;48.146;17.098;2023-04-19T06:00:19;36.38;;;23.85;;
42196;SDS011;27866;48.146;17.098;2023-04-19T06:04:41;34.67;;;22.60;;
42196;SDS011;27866;48.146;17.098;2023-04-19T06:08:53;32.65;;;21.80;;
42196;SDS011;27866;48.146;17.098;2023-04-19T06:13:05;33.88;;;22.42;;
42196;SDS011;27866;48.146;17.098;2023-04-19T06:17:16;30.90;;;21.77;;
42196;SDS011;27866;48.146;17.098;2023-04-19T06:21:33;36.13;;;21.38;;
42196;SDS011;27866;48.146;17.098;2023-04-19T06:25:44;35.78;;;21.75;;
42196;SDS011;27866;48.146;17.098;2023-04-19T06:29:57;38.90;;;23.13;;
42196;SDS011;27866;48.146;17.098;2023-04-19T06:34:10;35.03;;;22.60;;
42196;SDS011;27866;48.146;17.098;2023-04-19T06:38:21;35.40;;;24.40;;
42196;SDS011;27866;48.146;17.098;2023-04-19T06:42:33;35.80;;;24.02;;
42196;SDS011;27866;48.146;17.098;2023-04-19T06:46:45;35.67;;;24.45;;
42196;SDS011;27866;48.146;17.098;2023-04-19T06:50:56;39.67;;;24.48;;
42196;SDS011;27866;48.146;17.098;2023-04-19T06:55:08;40.20;;;23.40;;
42196;SDS011;27866;48.146;17.098;2023-04-19T06:59:20;35.03;;;23.40;;
42196;SDS011;27866;48.146;17.098;2023-04-19T07:03:31;32.90;;;22.98;;
42196;SDS011;27866;48.146;17.098;2023-04-19T07:07:43;38.97;;;23.63;;
42196;SDS011;27866;48.146;17.098;2023-04-19T07:11:54;34.55;;;22.90;;
42196;SDS011;27866;48.146;17.098;2023-04-19T07:16:06;43.50;;;25.08;;
42196;SDS011;27866;48.146;17.098;2023-04-19T07:20:17;45.20;;;26.90;;
42196;SDS011;27866;48.146;17.098;2023-04-19T07:24:29;47.45;;;27.15;;
42196;SDS011;27866;48.146;17.098;2023-04-19T07:28:41;46.60;;;27.77;;
42196;SDS011;27866;48.146;17.098;2023-04-19T07:32:52;51.08;;;29.08;;
42196;SDS011;27866;48.146;17.098;2023-04-19T07:37:04;46.35;;;28.65;;
42196;SDS011;27866;48.146;17.098;2023-04-19T07:41:15;45.80;;;29.35;;
42196;SDS011;27866;48.146;17.098;2023-04-19T07:45:28;42.78;;;26.55;;
42196;SDS011;27866;48.146;17.098;2023-04-19T07:49:40;47.70;;;29.05;;
42196;SDS011;27866;48.146;17.098;2023-04-19T07:53:53;40.67;;;25.77;;
42196;SDS011;27866;48.146;17.098;2023-04-19T07:58:05;42.28;;;26.67;;
42196;SDS011;27866;48.146;17.098;2023-04-19T08:02:16;36.75;;;25.45;;
42196;SDS011;27866;48.146;17.098;2023-04-19T08:06:28;37.88;;;23.50;;
42196;SDS011;27866;48.146;17.098;2023-04-19T08:10:40;34.15;;;22.13;;
42196;SDS011;27866;48.146;17.098;2023-04-19T08:14:51;32.30;;;22.17;;
42196;SDS011;27866;48.146;17.098;2023-04-19T08:19:02;38.53;;;24.55;;
42196;SDS011;27866;48.146;17.098;2023-04-19T08:23:13;35.92;;;23.58;;
42196;SDS011;27866;48.146;17.098;2023-04-19T08:27:25;32.95;;;22.98;;
42196;SDS011;27866;48.146;17.098;2023-04-19T08:31:36;35.75;;;22.42;;
42196;SDS011;27866;48.146;17.098;2023-04-19T08:35:47;34.13;;;23.02;;
42196;SDS011;27866;48.146;17.098;2023-04-19T08:39:59;36.95;;;21.88;;
42196;SDS011;27866;48.146;17.098;2023-04-19T08:44:10;34.70;;;22.83;;
42196;SDS011;27866;48.146;17.098;2023-04-19T08:48:22;33.75;;;20.90;;
42196;SDS011;27866;48.146;17.098;2023-04-19T08:52:35;36.83;;;24.55;;
42196;SDS011;27866;48.146;17.098;2023-04-19T08:56:47;34.45;;;22.63;;
42196;SDS011;27866;48.146;17.098;2023-04-19T09:00:58;38.28;;;24.65;;
42196;SDS011;27866;48.146;17.098;2023-04-19T09:05:10;36.58;;;23.08;;
42196;SDS011;27866;48.146;17.098;2023-04-19T09:09:28;38.60;;;24.58;;
42196;SDS011;27866;48.146;17.098;2023-04-19T09:13:40;32.90;;;21.63;;
42196;SDS011;27866;48.146;17.098;2023-04-19T09:18:03;34.75;;;22.88;;
42196;SDS011;27866;48.146;17.098;2023-04-19T09:22:19;36.53;;;22.85;;
42196;SDS011;27866;48.146;17.098;2023-04-19T09:26:31;35.58;;;23.83;;
42196;SDS011;27866;48.146;17.098;2023-04-19T09:30:43;42.08;;;25.77;;
42196;SDS011;27866;48.146;17.098;2023-04-19T09:34:55;37.42;;;23.52;;
42196;SDS011;27866;48.146;17.098;2023-04-19T09:39:08;30.48;;;20.08;;
42196;SDS011;27866;48.146;17.098;2023-04-19T09:43:23;35.28;;;22.85;;
42196;SDS011;27866;48.146;17.098;2023-04-19T09:47:37;32.03;;;20.55;;
42196;SDS011;27866;48.146;17.098;2023-04-19T09:51:54;28.52;;;17.40;;
42196;SDS011;27866;48.146;17.098;2023-04-19T09:56:07;16.05;;;8.90;;
42196;SDS011;27866;48.146;17.098;2023-04-19T10:00:22;9.85;;;7.18;;
42196;SDS011;27866;48.146;17.098;2023-04-19T10:04:33;7.25;;;4.35;;
42196;SDS011;27866;48.146;17.098;2023-04-19T10:08:48;6.28;;;4.00;;
42196;SDS011;27866;48.146;17.098;2023-04-19T10:13:01;8.38;;;3.88;;
42196;SDS011;27866;48.146;17.098;2023-04-19T10:17:16;6.90;;;4.22;;
42196;SDS011;27866;48.146;17.098;2023-04-19T10:21:27;5.32;;;4.03;;
42196;SDS011;27866;48.146;17.098;2023-04-19T10:25:44;6.15;;;4.85;;
42196;SDS011;27866;48.146;17.098;2023-04-19T10:29:58;4.75;;;3.45;;
42196;SDS011;27866;48.146;17.098;2023-04-19T10:34:13;5.72;;;3.22;;
42196;SDS011;27866;48.146;17.098;2023-04-19T10:38:45;5.35;;;3.78;;
42196;SDS011;27866;48.146;17.098;2023-04-19T10:43:13;4.93;;;3.58;;
42196;SDS011;27866;48.146;17.098;2023-04-19T10:47:39;6.32;;;4.47;;
42196;SDS011;27866;48.146;17.098;2023-04-19T10:51:54;8.52;;;4.75;;
42196;SDS011;27866;48.146;17.098;2023-04-19T10:56:07;6.50;;;4.78;;
42196;SDS011;27866;48.146;17.098;2023-04-19T11:00:19;9.95;;;4.95;;
42196;SDS011;27866;48.146;17.098;2023-04-19T11:08:45;8.32;;;5.63;;
42196;SDS011;27866;48.146;17.098;2023-04-19T11:12:57;6.78;;;5.45;;
42196;SDS011;27866;48.146;17.098;2023-04-19T11:21:39;9.00;;;5.75;;
42196;SDS011;27866;48.146;17.098;2023-04-19T11:25:50;9.82;;;6.65;;
42196;SDS011;27866;48.146;17.098;2023-04-19T11:30:06;7.03;;;5.45;;
42196;SDS011;27866;48.146;17.098;2023-04-19T11:34:33;8.88;;;5.68;;
42196;SDS011;27866;48.146;17.098;2023-04-19T11:38:50;10.13;;;4.60;;
42196;SDS011;27866;48.146;17.098;2023-04-19T11:43:03;8.57;;;6.07;;
42196;SDS011;27866;48.146;17.098;2023-04-19T11:47:14;6.30;;;5.22;;
42196;SDS011;27866;48.146;17.098;2023-04-19T11:51:26;8.20;;;6.53;;
42196;SDS011;27866;48.146;17.098;2023-04-19T11:55:37;8.18;;;5.50;;
42196;SDS011;27866;48.146;17.098;2023-04-19T12:04:38;7.07;;;4.95;;
42196;SDS011;27866;48.146;17.098;2023-04-19T12:08:50;7.60;;;5.25;;
42196;SDS011;27866;48.146;17.098;2023-04-19T12:13:16;8.32;;;5.28;;
42196;SDS011;27866;48.146;17.098;2023-04-19T12:17:27;6.07;;;4.38;;
42196;SDS011;27866;48.146;17.098;2023-04-19T12:21:39;8.32;;;5.00;;
42196;SDS011;27866;48.146;17.098;2023-04-19T12:25:50;6.80;;;4.40;;
42196;SDS011;27866;48.146;17.098;2023-04-19T12:30:02;6.40;;;4.63;;
42196;SDS011;27866;48.146;17.098;2023-04-19T12:34:13;7.07;;;4.60;;
42196;SDS011;27866;48.146;17.098;2023-04-19T12:38:25;9.45;;;5.55;;
42196;SDS011;27866;48.146;17.098;2023-04-19T12:42:36;7.55;;;5.63;;
42196;SDS011;27866;48.146;17.098;2023-04-19T12:46:47;10.20;;;6.25;;
42196;SDS011;27866;48.146;17.098;2023-04-19T12:50:59;11.10;;;5.63;;
42196;SDS011;27866;48.146;17.098;2023-04-19T12:55:10;6.57;;;3.90;;
42196;SDS011;27866;48.146;17.098;2023-04-19T12:59:22;4.78;;;3.38;;
42196;SDS011;27866;48.146;17.098;2023-04-19T13:03:33;5.88;;;3.60;;
42196;SDS011;27866;48.146;17.098;2023-04-19T13:07:45;3.97;;;3.10;;
42196;SDS011;27866;48.146;17.098;2023-04-19T13:11:57;5.68;;;3.80;;
42196;SDS011;27866;48.146;17.098;2023-04-19T13:16:08;5.90;;;3.80;;
42196;SDS011;27866;48.146;17.098;2023-04-19T13:20:20;4.60;;;3.70;;
42196;SDS011;27866;48.146;17.098;2023-04-19T13:24:31;6.55;;;4.05;;
42196;SDS011;27866;48.146;17.098;2023-04-19T13:28:43;7.53;;;4.28;;
42196;SDS011;27866;48.146;17.098;2023-04-19T13:32:54;6.35;;;4.50;;
42196;SDS011;27866;48.146;17.098;2023-04-19T13:37:06;5.95;;;4.60;;
42196;SDS011;27866;48.146;17.098;2023-04-19T13:41:17;7.78;;;4.55;;
42196;SDS011;27866;48.146;17.098;2023-04-19T13:45:29;7.25;;;4.82;;
42196;SDS011;27866;48.146;17.098;2023-04-19T13:49:41;7.97;;;3.92;;
42196;SDS011;27866;48.146;17.098;2023-04-19T13:53:52;11.27;;;4.47;;
42196;SDS011;27866;48.146;17.098;2023-04-19T13:58:04;5.03;;;3.45;;
42196;SDS011;27866;48.146;17.098;2023-04-19T14:02:15;5.10;;;3.95;;
42196;SDS011;27866;48.146;17.098;2023-04-19T14:06:26;7.55;;;4.40;;
42196;SDS011;27866;48.146;17.098;2023-04-19T14:10:37;5.13;;;4.32;;
42196;SDS011;27866;48.146;17.098;2023-04-19T14:14:49;8.20;;;3.97;;
42196;SDS011;27866;48.146;17.098;2023-04-19T14:19:01;5.50;;;4.00;;
42196;SDS011;27866;48.146;17.098;2023-04-19T14:23:12;4.60;;;3.72;;
42196;SDS011;27866;48.146;17.098;2023-04-19T14:27:23;6.90;;;4.10;;
42196;SDS011;27866;48.146;17.098;2023-04-19T14:31:36;6.97;;;4.28;;
42196;SDS011;27866;48.146;17.098;2023-04-19T14:35:47;6.45;;;4.10;;
42196;SDS011;27866;48.146;17.098;2023-04-19T14:39:59;8.40;;;4.50;;
42196;SDS011;27866;48.146;17.098;2023-04-19T14:44:10;5.78;;;4.03;;
42196;SDS011;27866;48.146;17.098;2023-04-19T14:48:21;6.50;;;3.88;;
42196;SDS011;27866;48.146;17.098;2023-04-19T14:52:32;8.77;;;4.35;;
42196;SDS011;27866;48.146;17.098;2023-04-19T14:56:44;6.57;;;4.65;;
42196;SDS011;27866;48.146;17.098;2023-04-19T15:00:57;8.23;;;4.40;;
42196;SDS011;27866;48.146;17.098;2023-04-19T15:05:09;6.75;;;4.90;;
42196;SDS011;27866;48.146;17.098;2023-04-19T15:09:20;11.45;;;5.00;;
42196;SDS011;27866;48.146;17.098;2023-04-19T15:13:31;7.80;;;4.78;;
42196;SDS011;27866;48.146;17.098;2023-04-19T15:17:44;6.40;;;5.00;;
42196;SDS011;27866;48.146;17.098;2023-04-19T15:21:55;11.57;;;7.32;;
42196;SDS011;27866;48.146;17.098;2023-04-19T15:26:07;6.50;;;4.70;;
42196;SDS011;27866;48.146;17.098;2023-04-19T15:30:19;6.20;;;3.65;;
42196;SDS011;27866;48.146;17.098;2023-04-19T15:34:30;5.60;;;3.50;;
42196;SDS011;27866;48.146;17.098;2023-04-19T15:38:42;7.78;;;3.70;;
42196;SDS011;27866;48.146;17.098;2023-04-19T15:42:53;6.47;;;3.65;;
42196;SDS011;27866;48.146;17.098;2023-04-19T15:47:05;4.95;;;3.70;;
42196;SDS011;27866;48.146;17.098;2023-04-19T15:51:16;5.53;;;3.85;;
42196;SDS011;27866;48.146;17.098;2023-04-19T15:55:27;7.82;;;3.75;;
42196;SDS011;27866;48.146;17.098;2023-04-19T15:59:39;5.03;;;3.67;;
42196;SDS011;27866;48.146;17.098;2023-04-19T16:03:51;6.75;;;4.85;;
42196;SDS011;27866;48.146;17.098;2023-04-19T16:08:09;6.15;;;3.80;;
42196;SDS011;27866;48.146;17.098;2023-04-19T16:12:21;7.68;;;4.75;;
42196;SDS011;27866;48.146;17.098;2023-04-19T16:16:33;7.35;;;5.15;;
42196;SDS011;27866;48.146;17.098;2023-04-19T16:20:44;7.28;;;5.07;;
42196;SDS011;27866;48.146;17.098;2023-04-19T16:24:55;8.20;;;5.32;;
42196;SDS011;27866;48.146;17.098;2023-04-19T16:29:06;9.15;;;5.45;;
42196;SDS011;27866;48.146;17.098;2023-04-19T16:33:18;9.77;;;5.35;;
42196;SDS011;27866;48.146;17.098;2023-04-19T16:37:29;6.60;;;4.82;;
42196;SDS011;27866;48.146;17.098;2023-04-19T16:41:41;8.07;;;5.05;;
42196;SDS011;27866;48.146;17.098;2023-04-19T16:45:53;7.00;;;4.78;;
42196;SDS011;27866;48.146;17.098;2023-04-19T16:50:04;7.10;;;5.28;;
42196;SDS011;27866;48.146;17.098;2023-04-19T16:54:16;7.57;;;4.70;;
42196;SDS011;27866;48.146;17.098;2023-04-19T16:58:27;7.85;;;4.53;;
42196;SDS011;27866;48.146;17.098;2023-04-19T17:02:39;7.15;;;4.68;;
42196;SDS011;27866;48.146;17.098;2023-04-19T17:06:50;9.52;;;5.07;;
42196;SDS011;27866;48.146;17.098;2023-04-19T17:11:01;7.63;;;5.13;;
42196;SDS011;27866;48.146;17.098;2023-04-19T17:15:12;6.68;;;5.20;;
42196;SDS011;27866;48.146;17.098;2023-04-19T17:19:24;8.02;;;6.07;;
42196;SDS011;27866;48.146;17.098;2023-04-19T17:23:35;8.10;;;5.00;;
42196;SDS011;27866;48.146;17.098;2023-04-19T17:27:47;8.27;;;5.53;;
42196;SDS011;27866;48.146;17.098;2023-04-19T17:31:58;10.02;;;5.68;;
42196;SDS011;27866;48.146;17.098;2023-04-19T17:36:10;11.32;;;5.85;;
42196;SDS011;27866;48.146;17.098;2023-04-19T17:40:22;7.50;;;5.28;;
42196;SDS011;27866;48.146;17.098;2023-04-19T17:44:33;8.15;;;5.18;;
42196;SDS011;27866;48.146;17.098;2023-04-19T17:48:44;7.75;;;4.80;;
42196;SDS011;27866;48.146;17.098;2023-04-19T17:52:56;7.55;;;5.40;;
42196;SDS011;27866;48.146;17.098;2023-04-19T17:57:07;11.50;;;5.45;;
42196;SDS011;27866;48.146;17.098;2023-04-19T18:01:19;9.13;;;4.97;;
42196;SDS011;27866;48.146;17.098;2023-04-19T18:05:30;7.70;;;5.28;;
42196;SDS011;27866;48.146;17.098;2023-04-19T18:09:41;8.77;;;5.50;;
42196;SDS011;27866;48.146;17.098;2023-04-19T18:13:52;10.20;;;5.00;;
42196;SDS011;27866;48.146;17.098;2023-04-19T18:18:04;10.43;;;5.82;;
42196;SDS011;27866;48.146;17.098;2023-04-19T18:22:15;8.65;;;6.40;;
42196;SDS011;27866;48.146;17.098;2023-04-19T18:26:34;8.63;;;5.10;;
42196;SDS011;27866;48.146;17.098;2023-04-19T18:30:48;8.57;;;5.22;;
42196;SDS011;27866;48.146;17.098;2023-04-19T18:35:00;7.78;;;5.13;;
42196;SDS011;27866;48.146;17.098;2023-04-19T18:39:18;7.13;;;4.88;;
42196;SDS011;27866;48.146;17.098;2023-04-19T18:43:29;6.82;;;5.03;;
42196;SDS011;27866;48.146;17.098;2023-04-19T18:47:40;6.60;;;4.20;;
42196;SDS011;27866;48.146;17.098;2023-04-19T18:51:52;7.07;;;5.10;;
42196;SDS011;27866;48.146;17.098;2023-04-19T18:56:03;8.45;;;5.25;;
42196;SDS011;27866;48.146;17.098;2023-04-19T19:00:14;7.03;;;4.80;;
42196;SDS011;27866;48.146;17.098;2023-04-19T19:04:26;6.95;;;5.15;;
42196;SDS011;27866;48.146;17.098;2023-04-19T19:08:38;6.93;;;5.25;;
42196;SDS011;27866;48.146;17.098;2023-04-19T19:12:49;6.65;;;4.93;;
42196;SDS011;27866;48.146;17.098;2023-04-19T19:17:06;9.40;;;5.65;;
42196;SDS011;27866;48.146;17.098;2023-04-19T19:21:18;7.63;;;5.30;;
42196;SDS011;27866;48.146;17.098;2023-04-19T19:25:29;9.05;;;5.25;;
42196;SDS011;27866;48.146;17.098;2023-04-19T19:29:41;9.60;;;5.53;;
42196;SDS011;27866;48.146;17.098;2023-04-19T19:33:52;8.40;;;5.57;;
42196;SDS011;27866;48.146;17.098;2023-04-19T19:38:03;7.30;;;5.47;;
42196;SDS011;27866;48.146;17.098;2023-04-19T19:42:15;9.25;;;6.05;;
42196;SDS011;27866;48.146;17.098;2023-04-19T19:46:27;8.63;;;5.82;;
42196;SDS011;27866;48.146;17.098;2023-04-19T19:50:38;10.07;;;6.55;;
42196;SDS011;27866;48.146;17.098;2023-04-19T19:54:50;10.98;;;6.80;;
42196;SDS011;27866;48.146;17.098;2023-04-19T19:59:02;10.15;;;7.32;;
42196;SDS011;27866;48.146;17.098;2023-04-19T20:03:13;9.27;;;7.13;;
42196;SDS011;27866;48.146;17.098;2023-04-19T20:07:25;9.73;;;6.60;;
42196;SDS011;27866;48.146;17.098;2023-04-19T20:11:36;10.10;;;7.10;;
42196;SDS011;27866;48.146;17.098;2023-04-19T20:15:47;13.18;;;7.47;;
42196;SDS011;27866;48.146;17.098;2023-04-19T20:19:58;10.82;;;7.32;;
42196;SDS011;27866;48.146;17.098;2023-04-19T20:24:14;10.93;;;7.97;;
42196;SDS011;27866;48.146;17.098;2023-04-19T20:28:27;12.65;;;7.95;;
42196;SDS011;27866;48.146;17.098;2023-04-19T20:32:38;13.23;;;7.40;;
42196;SDS011;27866;48.146;17.098;2023-04-19T20:36:51;10.60;;;7.97;;
42196;SDS011;27866;48.146;17.098;2023-04-19T20:41:03;11.90;;;8.55;;
42196;SDS011;27866;48.146;17.098;2023-04-19T20:45:14;12.63;;;8.95;;
42196;SDS011;27866;48.146;17.098;2023-04-19T20:49:25;11.85;;;8.50;;
42196;SDS011;27866;48.146;17.098;2023-04-19T20:53:36;13.55;;;8.82;;
42196;SDS011;27866;48.146;17.098;2023-04-19T20:57:48;12.88;;;9.05;;
42196;SDS011;27866;48.146;17.098;2023-04-19T21:01:59;15.23;;;9.60;;
42196;SDS011;27866;48.146;17.098;2023-04-19T21:06:10;14.00;;;8.60;;
42196;SDS011;27866;48.146;17.098;2023-04-19T21:10:21;13.07;;;8.63;;
42196;SDS011;27866;48.146;17.098;2023-04-19T21:14:33;13.30;;;8.98;;
42196;SDS011;27866;48.146;17.098;2023-04-19T21:18:44;14.10;;;8.90;;
42196;SDS011;27866;48.146;17.098;2023-04-19T21:22:55;12.70;;;9.02;;
42196;SDS011;27866;48.146;17.098;2023-04-19T21:27:06;13.80;;;8.90;;
42196;SDS011;27866;48.146;17.098;2023-04-19T21:31:18;14.52;;;9.20;;
42196;SDS011;27866;48.146;17.098;2023-04-19T21:35:29;12.75;;;9.15;;
42196;SDS011;27866;48.146;17.098;2023-04-19T21:39:40;16.33;;;8.88;;
42196;SDS011;27866;48.146;17.098;2023-04-19T21:43:51;14.85;;;9.65;;
42196;SDS011;27866;48.146;17.098;2023-04-19T21:48:04;12.80;;;9.18;;
42196;SDS011;27866;48.146;17.098;2023-04-19T21:52:15;14.63;;;9.48;;
42196;SDS011;27866;48.146;17.098;2023-04-19T21:56:27;14.00;;;8.98;;
42196;SDS011;27866;48.146;17.098;2023-04-19T22:00:38;14.18;;;8.75;;
42196;SDS011;27866;48.146;17.098;2023-04-19T22:04:50;14.30;;;9.73;;
42196;SDS011;27866;48.146;17.098;2023-04-19T22:09:03;13.77;;;9.65;;
42196;SDS011;27866;48.146;17.098;2023-04-19T22:13:15;15.82;;;10.38;;
42196;SDS011;27866;48.146;17.098;2023-04-19T22:17:27;15.95;;;10.02;;
42196;SDS011;27866;48.146;17.098;2023-04-19T22:21:38;14.82;;;9.95;;
42196;SDS011;27866;48.146;17.098;2023-04-19T22:25:50;16.55;;;10.50;;
42196;SDS011;27866;48.146;17.098;2023-04-19T22:30:01;18.00;;;11.98;;
42196;SDS011;27866;48.146;17.098;2023-04-19T22:34:13;13.95;;;9.75;;
42196;SDS011;27866;48.146;17.098;2023-04-19T22:38:25;15.13;;;10.18;;
42196;SDS011;27866;48.146;17.098;2023-04-19T22:42:36;17.42;;;10.88;;
42196;SDS011;27866;48.146;17.098;2023-04-19T22:46:47;17.65;;;10.25;;
42196;SDS011;27866;48.146;17.098;2023-04-19T22:50:59;15.52;;;10.35;;
42196;SDS011;27866;48.146;17.098;2023-04-19T22:55:10;16.90;;;10.73;;
42196;SDS011;27866;48.146;17.098;2023-04-19T22:59:22;17.98;;;10.70;;
42196;SDS011;27866;48.146;17.098;2023-04-19T23:03:33;17.42;;;11.38;;
42196;SDS011;27866;48.146;17.098;2023-04-19T23:07:44;16.95;;;11.32;;
42196;SDS011;27866;48.146;17.098;2023-04-19T23:11:55;19.15;;;11.88;;
42196;SDS011;27866;48.146;17.098;2023-04-19T23:16:10;18.00;;;11.73;;
42196;SDS011;27866;48.146;17.098;2023-04-19T23:20:21;17.73;;;12.13;;
42196;SDS011;27866;48.146;17.098;2023-04-19T23:24:32;16.70;;;11.57;;
42196;SDS011;27866;48.146;17.098;2023-04-19T23:28:45;16.63;;;11.60;;
42196;SDS011;27866;48.146;17.098;2023-04-19T23:32:56;16.45;;;11.85;;
42196;SDS011;27866;48.146;17.098;2023-04-19T23:37:08;19.20;;;12.18;;
42196;SDS011;27866;48.146;17.098;2023-04-19T23:41:20;20.33;;;12.98;;
42196;SDS011;27866;48.146;17.098;2023-04-19T23:45:31;19.98;;;12.52;;
42196;SDS011;27866;48.146;17.098;2023-04-19T23:49:42;19.42;;;13.75;;
42196;SDS011;27866;48.146;17.098;2023-04-19T23:53:53;21.50;;;12.55;;
42196;SDS011;27866;48.146;17.098;2023-04-19T23:58:05;19.98;;;12.88;;
